ADDS METAR Data INFO
IDs: Format: Raw Decoded Include TAF

Data at: 0757 UTC 23 Jul 2018

KRCE 230735Z AUTO 07010KT 10SM 24/17 A2994 RMK AO2
KRCE 230715Z AUTO 07010KT 10SM CLR 24/17 A2995 RMK AO2
KRCE 230655Z AUTO 07009KT 10SM CLR 24/18 A2995 RMK AO2
KRCE 230635Z AUTO 07010KT 10SM CLR 24/18 A2994 RMK AO2
KRCE 230615Z AUTO 06009KT 10SM CLR 25/19 A2994 RMK AO2
KRCE 230555Z AUTO 08010KT 10SM CLR 25/19 A2994 RMK AO2
KRCE 230535Z AUTO 08008KT 10SM 25/19 A2993 RMK AO2
KRCE 230515Z AUTO 09009KT 10SM CLR 25/19 A2993 RMK AO2
KRCE 230455Z AUTO 08008KT 10SM CLR 26/19 A2993 RMK AO2
KRCE 230435Z AUTO 08010KT 10SM CLR 26/19 A2993 RMK AO2
KRCE 230415Z AUTO 09012KT 10SM CLR 26/19 A2992 RMK AO2
KRCE 230355Z AUTO 09013KT 10SM CLR 27/19 A2991 RMK AO2
KRCE 230335Z AUTO 10013KT 10SM CLR 27/18 A2991 RMK AO2
KRCE 230315Z AUTO 10013KT 10SM CLR 27/18 A2990 RMK AO2
KRCE 230255Z AUTO 09013KT 10SM CLR 28/20 A2989 RMK AO2
KRCE 230235Z AUTO 09010KT 10SM CLR 29/20 A2989 RMK AO2
KRCE 230215Z AUTO 09007G13KT 10SM CLR 29/19 A2989 RMK AO2
KRCE 230155Z AUTO 10011KT 10SM CLR 30/19 A2988 RMK AO2
KRCE 230135Z AUTO 10011KT 10SM CLR 31/19 A2988 RMK AO2
KRCE 230115Z AUTO 10012KT 10SM CLR 32/20 A2988 RMK AO2
KRCE 230055Z AUTO 11009KT 10SM CLR 32/20 A2987 RMK AO2
KRCE 230035Z AUTO 10012KT 10SM CLR 33/20 A2987 RMK AO2
KRCE 230015Z AUTO 10010KT 10SM CLR 33/20 A2987 RMK AO2
KRCE 222355Z AUTO 10011KT 10SM CLR 34/20 A2987 RMK AO2
KRCE 222335Z AUTO 13011KT 10SM CLR 35/20 A2988 RMK AO2
KRCE 222315Z AUTO 12010KT 10SM CLR 35/20 A2988 RMK AO2
KRCE 222255Z AUTO 13011KT 10SM CLR 36/20 A2989 RMK AO2
KRCE 222235Z AUTO 13010KT 10SM CLR 36/19 A2989 RMK AO2
KRCE 222215Z AUTO 14012KT 10SM CLR 36/19 A2989 RMK AO2
KRCE 222155Z AUTO 13011KT 10SM CLR 36/19 A2990 RMK AO2
KRCE 222135Z AUTO 13010KT 10SM CLR 36/19 A2990 RMK AO2
KRCE 222115Z AUTO 12010KT 10SM CLR 36/19 A2990 RMK AO2
KRCE 222055Z AUTO 11010KT 10SM CLR 34/19 A2990 RMK AO2
KRCE 222035Z AUTO 11010KT 10SM CLR 34/19 A2991 RMK AO2
KRCE 222015Z AUTO 13009KT 10SM CLR 34/19 A2991 RMK AO2
KRCE 221955Z AUTO 12009KT 10SM CLR 34/18 A2992 RMK AO2
KRCE 221935Z AUTO 13010KT 10SM CLR 36/19 A2993 RMK AO2
KRCE 221915Z AUTO 14009KT 10SM CLR 34/18 A2993 RMK AO2
KRCE 221855Z AUTO 11009KT 10SM CLR 34/18 A2994 RMK AO2
KRCE 221835Z AUTO 10009KT 10SM CLR 35/18 A2994 RMK AO2
KRCE 221815Z AUTO 09011KT 10SM CLR 35/18 A2995 RMK AO2
KRCE 221755Z AUTO 12010KT 10SM CLR 35/18 A2995 RMK AO2
KRCE 221715Z AUTO 13012KT 10SM CLR 34/17 A2996 RMK AO2
KRCE 221655Z AUTO 12008G17KT 10SM CLR 34/17 A2996 RMK AO2
KRCE 221635Z AUTO 10010KT 10SM CLR 33/17 A2996 RMK AO2
KRCE 221615Z AUTO 13013KT 10SM CLR 33/16 A2996 RMK AO2
KRCE 221555Z AUTO 12011KT 10SM CLR 32/17 A2996 RMK AO2
KRCE 221535Z AUTO 13012KT 10SM CLR 31/16 A2996 RMK AO2
KRCE 221515Z AUTO 12014KT 10SM CLR 30/16 A2996 RMK AO2
KRCE 221455Z AUTO 12012KT 10SM CLR 29/17 A2997 RMK AO2
KRCE 221435Z AUTO 11013KT 10SM CLR 29/17 A2997 RMK AO2
KRCE 221415Z AUTO 11012G17KT 10SM CLR 29/17 A2997 RMK AO2
KRCE 221355Z AUTO 11010KT 10SM CLR 28/17 A2997 RMK AO2
KRCE 221335Z AUTO 11012KT 10SM CLR 28/17 A2997 RMK AO2
KRCE 221315Z AUTO 10007KT 10SM CLR 27/17 A2997 RMK AO2
KRCE 221255Z AUTO 10007KT 10SM CLR 26/17 A2997 RMK AO2
KRCE 221235Z AUTO 10007KT 10SM CLR 26/16 A2997 RMK AO2
KRCE 221215Z AUTO 09008KT 10SM CLR 26/16 A2997 RMK AO2
KRCE 221155Z AUTO 09008KT 10SM CLR 25/16 A2997 RMK AO2
KRCE 221135Z AUTO 09008KT 10SM CLR 25/16 A2996 RMK AO2
KRCE 221115Z AUTO 10008KT 10SM CLR 25/16 A2996 RMK AO2
KRCE 221055Z AUTO 09007KT 10SM CLR 25/17 A2996 RMK AO2
KRCE 221035Z AUTO 09007KT 10SM CLR 25/17 A2996 RMK AO2
KRCE 221015Z AUTO 09006KT 10SM CLR 24/18 A2996 RMK AO2
KRCE 220955Z AUTO 08006KT 10SM CLR 25/17 A2996 RMK AO2
KRCE 220935Z AUTO 09008KT 10SM CLR 25/17 A2995 RMK AO2
KRCE 220915Z AUTO 09006KT 10SM CLR 26/17 A2995 RMK AO2
KRCE 220855Z AUTO 09006KT 10SM CLR 25/18 A2995 RMK AO2
KRCE 220835Z AUTO 11006KT 10SM CLR 25/19 A2995 RMK AO2
KRCE 220815Z AUTO 11003KT 10SM CLR 25/19 A2995 RMK AO2
KRCE 220755Z AUTO 12005KT 10SM CLR 26/19 A2995 RMK AO2
KRCE 220735Z AUTO 12007KT 10SM CLR 26/19 A2996 RMK AO2
KRCE 220715Z AUTO 11006KT 10SM CLR 26/20 A2996 RMK AO2
KRCE 220655Z AUTO 10005KT 10SM CLR 26/20 A2995 RMK AO2
KRCE 220635Z AUTO 10007KT 10SM FEW044 27/19 A2996 RMK AO2
KRCE 220615Z AUTO 10007KT 10SM CLR 27/19 A2995 RMK AO2
KRCE 220555Z AUTO 10006KT 10SM CLR 27/20 A2996 RMK AO2
KRCE 220535Z AUTO 11005KT 10SM CLR 27/20 A2996 RMK AO2
KRCE 220515Z AUTO 09006KT 10SM CLR 27/20 A2996 RMK AO2
KRCE 220455Z AUTO 10005KT 10SM CLR 28/21 A2996 RMK AO2
KRCE 220435Z AUTO 10005KT 10SM CLR 28/21 A2996 RMK AO2
KRCE 220415Z AUTO 09006KT 10SM CLR 28/21 A2995 RMK AO2
KRCE 220355Z AUTO 10006KT 10SM CLR 28/22 A2995 RMK AO2
KRCE 220335Z AUTO 11006KT 10SM CLR 29/22 A2995 RMK AO2
KRCE 220315Z AUTO 09005KT 10SM CLR 29/21 A2995 RMK AO2
KRCE 220255Z AUTO 08005KT 10SM CLR 29/21 A2995 RMK AO2
KRCE 220235Z AUTO 07004KT 10SM CLR 30/21 A2994 RMK AO2
KRCE 220215Z AUTO 07007KT 10SM CLR 31/21 A2994 RMK AO2
KRCE 220155Z AUTO 07008KT 10SM CLR 32/22 A2993 RMK AO2
KRCE 220135Z AUTO 07008KT 10SM CLR 32/22 A2993 RMK AO2
KRCE 220115Z AUTO 08008KT 10SM CLR 33/22 A2993 RMK AO2
KRCE 220055Z AUTO 09009KT 10SM CLR 34/21 A2993 RMK AO2
KRCE 220035Z AUTO 08008KT 10SM CLR 35/22 A2993 RMK AO2
KRCE 220015Z AUTO 07010KT 10SM CLR 35/21 A2993 RMK AO2
KRCE 212355Z AUTO 09009KT 10SM CLR 36/21 A2993 RMK AO2
KRCE 212335Z AUTO 09010KT 10SM CLR 36/21 A2993 RMK AO2
KRCE 212315Z AUTO 08007KT 10SM CLR 36/20 A2993 RMK AO2
KRCE 212255Z AUTO 07009KT 10SM CLR 37/20 A2993 RMK AO2
KRCE 212235Z AUTO 06012KT 10SM CLR 37/21 A2994 RMK AO2
KRCE 212215Z AUTO 05008KT 10SM CLR 37/20 A2994 RMK AO2
KRCE 212155Z AUTO 08009KT 10SM CLR 37/20 A2994 RMK AO2
KRCE 212135Z AUTO 07009KT 10SM CLR 37/21 A2994 RMK AO2
KRCE 212115Z AUTO 07009KT 030V090 10SM CLR 37/20 A2994 RMK AO2
KRCE 212055Z AUTO 08006G11KT 10SM CLR 37/20 A2994 RMK AO2
KRCE 212035Z AUTO 04008KT 10SM CLR 37/20 A2995 RMK AO2
KRCE 212015Z AUTO 04007KT 10SM CLR 37/20 A2995 RMK AO2